Council Grove, KS (66846)

9:12 AM CDT on May 28, 2015 (GMT -0500)
Thomas Creek | | Change Station
CLOSE
Current Station
Personal Weather Station
Location: Junction City, KS
Elevation: 1240 ft
Nearby Weather Stations

Elev 1240 ft 38.92 °N, 96.73 °W | Updated 41 minutes ago

Overcast
Overcast
64.0 °F
Feels Like 64.0 °F
N
1.0
Wind Variable Wind from SW

Today
High -- | Low -- °F
--% Chance of Precip.
Yesterday
High -- | Low -- °F
Precip. -- in
6:05 AM 8:41 PM
Waxing Gibbous, 76% visible
Pressure 30.03 in
Visibility 9.0 miles
Clouds Overcast 10000 ft
Dew Point 62 °F
Humidity 95%
Rainfall 0.80 in
Snow Depth Not available.
UV 1 out of 12
Pollen 7.10 out of 12
Air Quality Not available.
Flu Activity No Activity
METAR KEMP 281353Z AUTO 16003KT 9SM -RA OVC100 19/17 A3005 RMK AO2 RAB04E06B28 SLP168 P0003 T01890172

More Conditions Fewer Conditions

Pressure 30.03 in
Visibility 9.0 miles
Clouds Overcast 10000 ft
Dew Point 62 °F
Humidity 95%
Rainfall 0.80 in
Snow Depth Not available.
UV 1 out of 12
Pollen 7.10 out of 12
Air Quality Not available.
Flu Activity No Activity
METAR KEMP 281353Z AUTO 16003KT 9SM -RA OVC100 19/17 A3005 RMK AO2 RAB04E06B28 SLP168 P0003 T01890172

More Conditions Fewer Conditions

10-Day Weather Forecast

Almanac

Astronomy

May. 28, 2015 Rise Set
Actual Time
Civil Twilight
Nautical Twilight
Astronomical Twilight
Moon
Length of Visible Light
Length of Day
Tomorrow will be .
, % of the Moon is Illuminated

Today's Extremes

State Highs State Lows

Community

WunderPhotos

Upload Photos

1,824,982 photos uploaded!

WunderBlogs® & News

Nearby

Air Quality

  Air Quality AQ Index Pollutant
Not available.

Snow Depth

Station Depth Elevation

Earthquake Activity

City Distance Mag. Time & Date
Minimum magnitude displayed is 2.5.

Coastal Water Temperatures

Place Temperature

Stations

Nearby Weather Stations

Station Location Temp. Windchill Dew Point Humidity Wind Precip. Elev Updated Type